sensor_id;sensor_type;location;lat;lon;timestamp;temperature;humidity
22568;DHT22;11450;50.818;4.382;2022-07-23T00:01:24;19.40;99.90
22568;DHT22;11450;50.818;4.382;2022-07-23T00:03:50;19.30;99.90
22568;DHT22;11450;50.818;4.382;2022-07-23T00:06:17;19.30;99.90
22568;DHT22;11450;50.818;4.382;2022-07-23T00:08:43;19.30;99.90
22568;DHT22;11450;50.818;4.382;2022-07-23T00:11:09;19.20;99.90
22568;DHT22;11450;50.818;4.382;2022-07-23T00:13:34;19.30;99.90
22568;DHT22;11450;50.818;4.382;2022-07-23T00:16:00;19.30;99.90
22568;DHT22;11450;50.818;4.382;2022-07-23T00:18:26;19.30;99.90
22568;DHT22;11450;50.818;4.382;2022-07-23T00:20:51;19.30;99.90
22568;DHT22;11450;50.818;4.382;2022-07-23T00:23:17;19.30;99.90
22568;DHT22;11450;50.818;4.382;2022-07-23T00:25:43;19.30;99.90
22568;DHT22;11450;50.818;4.382;2022-07-23T00:28:10;19.30;99.90
22568;DHT22;11450;50.818;4.382;2022-07-23T00:30:36;19.30;99.90
22568;DHT22;11450;50.818;4.382;2022-07-23T00:33:05;19.30;99.90
22568;DHT22;11450;50.818;4.382;2022-07-23T00:35:33;19.30;99.90
22568;DHT22;11450;50.818;4.382;2022-07-23T00:38:00;19.20;99.90
22568;DHT22;11450;50.818;4.382;2022-07-23T00:40:29;19.00;99.90
22568;DHT22;11450;50.818;4.382;2022-07-23T00:42:55;19.10;99.90
22568;DHT22;11450;50.818;4.382;2022-07-23T00:45:21;19.10;99.90
22568;DHT22;11450;50.818;4.382;2022-07-23T00:47:47;19.10;99.90
22568;DHT22;11450;50.818;4.382;2022-07-23T00:50:13;19.10;99.90
22568;DHT22;11450;50.818;4.382;2022-07-23T00:52:39;19.10;99.90
22568;DHT22;11450;50.818;4.382;2022-07-23T00:55:07;19.20;99.90
22568;DHT22;11450;50.818;4.382;2022-07-23T00:57:34;19.00;99.90
22568;DHT22;11450;50.818;4.382;2022-07-23T01:00:01;19.10;99.90
22568;DHT22;11450;50.818;4.382;2022-07-23T01:02:27;19.00;99.90
22568;DHT22;11450;50.818;4.382;2022-07-23T01:04:54;18.90;99.90
22568;DHT22;11450;50.818;4.382;2022-07-23T01:07:21;18.90;99.90
22568;DHT22;11450;50.818;4.382;2022-07-23T01:09:49;18.90;99.90
22568;DHT22;11450;50.818;4.382;2022-07-23T01:12:16;18.90;99.90
22568;DHT22;11450;50.818;4.382;2022-07-23T01:14:41;18.90;99.90
22568;DHT22;11450;50.818;4.382;2022-07-23T01:17:07;18.90;99.90
22568;DHT22;11450;50.818;4.382;2022-07-23T01:19:33;18.90;99.90
22568;DHT22;11450;50.818;4.382;2022-07-23T01:22:02;18.90;99.90
22568;DHT22;11450;50.818;4.382;2022-07-23T01:24:28;18.90;99.90
22568;DHT22;11450;50.818;4.382;2022-07-23T01:26:53;18.90;99.90
22568;DHT22;11450;50.818;4.382;2022-07-23T01:29:19;18.80;99.90
22568;DHT22;11450;50.818;4.382;2022-07-23T01:31:46;18.80;99.90
22568;DHT22;11450;50.818;4.382;2022-07-23T01:34:13;18.90;99.90
22568;DHT22;11450;50.818;4.382;2022-07-23T01:36:39;18.70;99.90
22568;DHT22;11450;50.818;4.382;2022-07-23T01:39:06;18.80;99.90
22568;DHT22;11450;50.818;4.382;2022-07-23T01:41:33;18.80;99.90
22568;DHT22;11450;50.818;4.382;2022-07-23T01:43:59;18.90;99.90
22568;DHT22;11450;50.818;4.382;2022-07-23T01:46:26;18.80;99.90
22568;DHT22;11450;50.818;4.382;2022-07-23T01:48:52;18.70;99.90
22568;DHT22;11450;50.818;4.382;2022-07-23T01:51:17;18.70;99.90
22568;DHT22;11450;50.818;4.382;2022-07-23T01:53:43;18.70;99.90
22568;DHT22;11450;50.818;4.382;2022-07-23T01:56:09;18.70;99.90
22568;DHT22;11450;50.818;4.382;2022-07-23T01:58:34;18.80;99.90
22568;DHT22;11450;50.818;4.382;2022-07-23T02:01:24;18.70;99.90
22568;DHT22;11450;50.818;4.382;2022-07-23T02:03:50;18.70;99.90
22568;DHT22;11450;50.818;4.382;2022-07-23T02:06:16;18.70;99.90
22568;DHT22;11450;50.818;4.382;2022-07-23T02:08:41;18.70;99.90
22568;DHT22;11450;50.818;4.382;2022-07-23T02:11:07;18.60;99.90
22568;DHT22;11450;50.818;4.382;2022-07-23T02:13:32;18.60;99.90
22568;DHT22;11450;50.818;4.382;2022-07-23T02:15:58;18.70;99.90
22568;DHT22;11450;50.818;4.382;2022-07-23T02:18:24;18.60;99.90
22568;DHT22;11450;50.818;4.382;2022-07-23T02:20:57;18.60;99.90
22568;DHT22;11450;50.818;4.382;2022-07-23T02:23:23;18.50;99.90
22568;DHT22;11450;50.818;4.382;2022-07-23T02:25:48;18.50;99.90
22568;DHT22;11450;50.818;4.382;2022-07-23T02:28:14;18.50;99.90
22568;DHT22;11450;50.818;4.382;2022-07-23T02:30:40;18.50;99.90
22568;DHT22;11450;50.818;4.382;2022-07-23T02:33:06;18.40;99.90
22568;DHT22;11450;50.818;4.382;2022-07-23T02:35:32;18.40;99.90
22568;DHT22;11450;50.818;4.382;2022-07-23T02:37:59;18.40;99.90
22568;DHT22;11450;50.818;4.382;2022-07-23T02:40:24;18.40;99.90
22568;DHT22;11450;50.818;4.382;2022-07-23T02:42:50;18.30;99.90
22568;DHT22;11450;50.818;4.382;2022-07-23T02:45:16;18.30;99.90
22568;DHT22;11450;50.818;4.382;2022-07-23T02:47:41;18.30;99.90
22568;DHT22;11450;50.818;4.382;2022-07-23T02:50:07;18.30;99.90
22568;DHT22;11450;50.818;4.382;2022-07-23T02:52:33;18.20;99.90
22568;DHT22;11450;50.818;4.382;2022-07-23T02:54:59;18.30;99.90
22568;DHT22;11450;50.818;4.382;2022-07-23T02:57:24;18.20;99.90
22568;DHT22;11450;50.818;4.382;2022-07-23T02:59:50;18.20;99.90
22568;DHT22;11450;50.818;4.382;2022-07-23T03:05:38;18.10;99.90
22568;DHT22;11450;50.818;4.382;2022-07-23T03:08:14;18.20;99.90
22568;DHT22;11450;50.818;4.382;2022-07-23T03:10:40;18.10;99.90
22568;DHT22;11450;50.818;4.382;2022-07-23T03:13:05;18.10;99.90
22568;DHT22;11450;50.818;4.382;2022-07-23T03:15:31;17.90;99.90
22568;DHT22;11450;50.818;4.382;2022-07-23T03:21:15;17.90;99.90
22568;DHT22;11450;50.818;4.382;2022-07-23T03:23:40;17.90;99.90
22568;DHT22;11450;50.818;4.382;2022-07-23T03:26:06;17.90;99.90
22568;DHT22;11450;50.818;4.382;2022-07-23T03:28:32;18.00;99.90
22568;DHT22;11450;50.818;4.382;2022-07-23T03:30:58;17.90;99.90
22568;DHT22;11450;50.818;4.382;2022-07-23T03:33:23;17.90;99.90
22568;DHT22;11450;50.818;4.382;2022-07-23T03:35:49;17.80;99.90
22568;DHT22;11450;50.818;4.382;2022-07-23T03:38:16;17.90;99.90
22568;DHT22;11450;50.818;4.382;2022-07-23T03:40:41;17.90;99.90
22568;DHT22;11450;50.818;4.382;2022-07-23T03:43:07;17.80;99.90
22568;DHT22;11450;50.818;4.382;2022-07-23T03:45:33;17.80;99.90
22568;DHT22;11450;50.818;4.382;2022-07-23T03:47:58;17.90;99.90
22568;DHT22;11450;50.818;4.382;2022-07-23T03:50:24;17.80;99.90
22568;DHT22;11450;50.818;4.382;2022-07-23T03:52:50;17.80;99.90
22568;DHT22;11450;50.818;4.382;2022-07-23T03:55:16;18.00;99.90
22568;DHT22;11450;50.818;4.382;2022-07-23T03:57:42;17.80;99.90
22568;DHT22;11450;50.818;4.382;2022-07-23T04:00:09;17.90;99.90
22568;DHT22;11450;50.818;4.382;2022-07-23T04:05:40;18.00;99.90
22568;DHT22;11450;50.818;4.382;2022-07-23T04:08:06;18.00;99.90
22568;DHT22;11450;50.818;4.382;2022-07-23T04:10:31;18.10;99.90
22568;DHT22;11450;50.818;4.382;2022-07-23T04:12:57;18.10;99.90
22568;DHT22;11450;50.818;4.382;2022-07-23T04:15:23;18.10;99.90
22568;DHT22;11450;50.818;4.382;2022-07-23T04:17:50;18.10;99.90
22568;DHT22;11450;50.818;4.382;2022-07-23T04:20:15;18.20;99.90
22568;DHT22;11450;50.818;4.382;2022-07-23T04:22:41;18.30;99.90
22568;DHT22;11450;50.818;4.382;2022-07-23T04:25:07;18.20;99.90
22568;DHT22;11450;50.818;4.382;2022-07-23T04:27:36;18.30;99.90
22568;DHT22;11450;50.818;4.382;2022-07-23T04:30:01;18.30;99.90
22568;DHT22;11450;50.818;4.382;2022-07-23T04:32:30;18.30;99.90
22568;DHT22;11450;50.818;4.382;2022-07-23T04:34:55;18.30;99.90
22568;DHT22;11450;50.818;4.382;2022-07-23T04:37:21;18.30;99.90
22568;DHT22;11450;50.818;4.382;2022-07-23T04:39:47;18.30;99.90
22568;DHT22;11450;50.818;4.382;2022-07-23T04:42:12;18.50;99.90
22568;DHT22;11450;50.818;4.382;2022-07-23T04:44:38;18.40;99.90
22568;DHT22;11450;50.818;4.382;2022-07-23T04:47:04;18.50;99.90
22568;DHT22;11450;50.818;4.382;2022-07-23T04:49:30;18.40;99.90
22568;DHT22;11450;50.818;4.382;2022-07-23T04:51:56;18.40;99.90
22568;DHT22;11450;50.818;4.382;2022-07-23T04:54:21;18.40;99.90
22568;DHT22;11450;50.818;4.382;2022-07-23T04:56:47;18.40;99.90
22568;DHT22;11450;50.818;4.382;2022-07-23T04:59:13;18.40;99.90
22568;DHT22;11450;50.818;4.382;2022-07-23T05:01:45;18.50;99.90
22568;DHT22;11450;50.818;4.382;2022-07-23T05:04:25;18.50;99.90
22568;DHT22;11450;50.818;4.382;2022-07-23T05:06:50;18.50;99.90
22568;DHT22;11450;50.818;4.382;2022-07-23T05:09:16;18.40;99.90
22568;DHT22;11450;50.818;4.382;2022-07-23T05:11:42;18.50;99.90
22568;DHT22;11450;50.818;4.382;2022-07-23T05:14:07;18.50;99.90
22568;DHT22;11450;50.818;4.382;2022-07-23T05:16:33;18.60;99.90
22568;DHT22;11450;50.818;4.382;2022-07-23T05:19:00;18.60;99.90
22568;DHT22;11450;50.818;4.382;2022-07-23T05:21:25;18.70;99.90
22568;DHT22;11450;50.818;4.382;2022-07-23T05:23:51;18.70;99.90
22568;DHT22;11450;50.818;4.382;2022-07-23T05:26:16;18.70;99.90
22568;DHT22;11450;50.818;4.382;2022-07-23T05:28:42;18.70;99.90
22568;DHT22;11450;50.818;4.382;2022-07-23T05:31:08;18.60;99.90
22568;DHT22;11450;50.818;4.382;2022-07-23T05:33:33;18.70;99.90
22568;DHT22;11450;50.818;4.382;2022-07-23T05:36:03;18.70;99.90
22568;DHT22;11450;50.818;4.382;2022-07-23T05:38:30;18.80;99.90
22568;DHT22;11450;50.818;4.382;2022-07-23T05:40:56;18.80;99.90
22568;DHT22;11450;50.818;4.382;2022-07-23T05:43:21;18.80;99.90
22568;DHT22;11450;50.818;4.382;2022-07-23T05:45:47;18.70;99.90
22568;DHT22;11450;50.818;4.382;2022-07-23T05:48:18;18.80;99.90
22568;DHT22;11450;50.818;4.382;2022-07-23T05:50:47;18.90;99.90
22568;DHT22;11450;50.818;4.382;2022-07-23T05:53:13;19.00;99.90
22568;DHT22;11450;50.818;4.382;2022-07-23T05:55:39;19.00;99.90
22568;DHT22;11450;50.818;4.382;2022-07-23T05:58:05;18.90;99.90
22568;DHT22;11450;50.818;4.382;2022-07-23T06:00:31;19.00;99.90
22568;DHT22;11450;50.818;4.382;2022-07-23T06:02:57;18.90;99.90
22568;DHT22;11450;50.818;4.382;2022-07-23T06:05:23;18.90;99.90
22568;DHT22;11450;50.818;4.382;2022-07-23T06:07:49;19.00;99.90
22568;DHT22;11450;50.818;4.382;2022-07-23T06:10:16;19.00;99.90
22568;DHT22;11450;50.818;4.382;2022-07-23T06:12:42;19.10;99.90
22568;DHT22;11450;50.818;4.382;2022-07-23T06:15:08;19.10;99.90
22568;DHT22;11450;50.818;4.382;2022-07-23T06:17:34;19.20;99.90
22568;DHT22;11450;50.818;4.382;2022-07-23T06:20:01;19.20;99.90
22568;DHT22;11450;50.818;4.382;2022-07-23T06:22:27;19.20;99.90
22568;DHT22;11450;50.818;4.382;2022-07-23T06:24:52;19.20;99.90
22568;DHT22;11450;50.818;4.382;2022-07-23T06:27:18;19.30;99.90
22568;DHT22;11450;50.818;4.382;2022-07-23T06:29:44;19.40;99.90
22568;DHT22;11450;50.818;4.382;2022-07-23T06:32:09;19.40;99.90
22568;DHT22;11450;50.818;4.382;2022-07-23T06:34:35;19.50;99.90
22568;DHT22;11450;50.818;4.382;2022-07-23T06:37:01;19.50;99.90
22568;DHT22;11450;50.818;4.382;2022-07-23T06:39:27;19.60;99.90
22568;DHT22;11450;50.818;4.382;2022-07-23T06:41:53;19.80;99.90
22568;DHT22;11450;50.818;4.382;2022-07-23T06:44:19;19.90;99.90
22568;DHT22;11450;50.818;4.382;2022-07-23T06:46:44;19.90;99.90
22568;DHT22;11450;50.818;4.382;2022-07-23T06:49:15;20.00;99.90
22568;DHT22;11450;50.818;4.382;2022-07-23T06:51:41;20.10;99.90
22568;DHT22;11450;50.818;4.382;2022-07-23T06:54:07;20.10;99.90
22568;DHT22;11450;50.818;4.382;2022-07-23T06:56:32;20.20;99.90
22568;DHT22;11450;50.818;4.382;2022-07-23T06:58:58;20.20;99.90
22568;DHT22;11450;50.818;4.382;2022-07-23T07:01:24;20.30;99.90
22568;DHT22;11450;50.818;4.382;2022-07-23T07:03:49;20.40;99.90
22568;DHT22;11450;50.818;4.382;2022-07-23T07:06:16;20.80;99.90
22568;DHT22;11450;50.818;4.382;2022-07-23T07:08:42;21.50;99.90
22568;DHT22;11450;50.818;4.382;2022-07-23T07:11:09;22.40;99.90
22568;DHT22;11450;50.818;4.382;2022-07-23T07:13:35;22.90;99.90
22568;DHT22;11450;50.818;4.382;2022-07-23T07:16:01;23.60;99.90
22568;DHT22;11450;50.818;4.382;2022-07-23T07:18:42;23.90;99.90
22568;DHT22;11450;50.818;4.382;2022-07-23T07:21:08;24.40;99.90
22568;DHT22;11450;50.818;4.382;2022-07-23T07:23:34;24.50;99.90
22568;DHT22;11450;50.818;4.382;2022-07-23T07:25:59;24.60;99.90
22568;DHT22;11450;50.818;4.382;2022-07-23T07:28:25;25.00;99.90
22568;DHT22;11450;50.818;4.382;2022-07-23T07:30:51;25.20;99.90
22568;DHT22;11450;50.818;4.382;2022-07-23T07:33:17;25.40;99.90
22568;DHT22;11450;50.818;4.382;2022-07-23T07:35:43;25.50;99.90
22568;DHT22;11450;50.818;4.382;2022-07-23T07:38:10;25.70;99.90
22568;DHT22;11450;50.818;4.382;2022-07-23T07:40:36;26.00;99.90
22568;DHT22;11450;50.818;4.382;2022-07-23T07:43:01;26.10;99.90
22568;DHT22;11450;50.818;4.382;2022-07-23T07:45:28;26.50;99.90
22568;DHT22;11450;50.818;4.382;2022-07-23T07:47:54;26.80;99.90
22568;DHT22;11450;50.818;4.382;2022-07-23T07:50:29;27.00;99.90
22568;DHT22;11450;50.818;4.382;2022-07-23T07:52:54;27.10;99.90
22568;DHT22;11450;50.818;4.382;2022-07-23T07:55:20;27.50;99.90
22568;DHT22;11450;50.818;4.382;2022-07-23T07:57:46;28.00;99.90
22568;DHT22;11450;50.818;4.382;2022-07-23T08:00:12;28.10;99.90
22568;DHT22;11450;50.818;4.382;2022-07-23T08:02:46;28.30;99.90
22568;DHT22;11450;50.818;4.382;2022-07-23T08:05:30;28.50;99.90
22568;DHT22;11450;50.818;4.382;2022-07-23T08:07:58;28.50;98.90
22568;DHT22;11450;50.818;4.382;2022-07-23T08:10:25;28.60;98.80
22568;DHT22;11450;50.818;4.382;2022-07-23T08:12:56;28.90;97.60
22568;DHT22;11450;50.818;4.382;2022-07-23T08:15:23;28.80;97.50
22568;DHT22;11450;50.818;4.382;2022-07-23T08:17:49;28.90;97.10
22568;DHT22;11450;50.818;4.382;2022-07-23T08:20:17;28.60;96.40
22568;DHT22;11450;50.818;4.382;2022-07-23T08:25:20;26.80;99.50
22568;DHT22;11450;50.818;4.382;2022-07-23T08:27:46;26.00;99.90
22568;DHT22;11450;50.818;4.382;2022-07-23T08:30:13;25.30;99.90
22568;DHT22;11450;50.818;4.382;2022-07-23T08:32:59;24.60;99.90
22568;DHT22;11450;50.818;4.382;2022-07-23T08:35:36;24.60;99.90
22568;DHT22;11450;50.818;4.382;2022-07-23T08:38:05;24.40;99.90
22568;DHT22;11450;50.818;4.382;2022-07-23T08:40:33;24.30;99.90
22568;DHT22;11450;50.818;4.382;2022-07-23T08:42:59;24.00;99.90
22568;DHT22;11450;50.818;4.382;2022-07-23T08:45:27;23.70;99.90
22568;DHT22;11450;50.818;4.382;2022-07-23T08:47:55;23.60;99.90
22568;DHT22;11450;50.818;4.382;2022-07-23T08:50:53;23.60;99.90
22568;DHT22;11450;50.818;4.382;2022-07-23T08:53:21;23.60;99.90
22568;DHT22;11450;50.818;4.382;2022-07-23T08:55:54;23.40;99.90
22568;DHT22;11450;50.818;4.382;2022-07-23T08:58:23;23.60;99.90
22568;DHT22;11450;50.818;4.382;2022-07-23T09:00:51;23.40;99.90
22568;DHT22;11450;50.818;4.382;2022-07-23T09:03:22;23.20;99.90
22568;DHT22;11450;50.818;4.382;2022-07-23T09:05:50;22.90;99.90
22568;DHT22;11450;50.818;4.382;2022-07-23T09:08:23;22.90;99.90
22568;DHT22;11450;50.818;4.382;2022-07-23T09:10:50;23.20;99.90
22568;DHT22;11450;50.818;4.382;2022-07-23T09:13:38;23.60;99.90
22568;DHT22;11450;50.818;4.382;2022-07-23T09:18:41;24.90;99.90
22568;DHT22;11450;50.818;4.382;2022-07-23T09:21:14;25.70;99.90
22568;DHT22;11450;50.818;4.382;2022-07-23T09:23:45;26.40;99.90
22568;DHT22;11450;50.818;4.382;2022-07-23T09:26:18;26.50;99.60
22568;DHT22;11450;50.818;4.382;2022-07-23T09:28:53;27.20;99.50
22568;DHT22;11450;50.818;4.382;2022-07-23T09:31:20;27.70;98.20
22568;DHT22;11450;50.818;4.382;2022-07-23T09:33:47;27.80;98.40
22568;DHT22;11450;50.818;4.382;2022-07-23T09:36:38;27.50;98.40
22568;DHT22;11450;50.818;4.382;2022-07-23T09:39:05;27.60;97.30
22568;DHT22;11450;50.818;4.382;2022-07-23T09:41:41;27.90;95.50
22568;DHT22;11450;50.818;4.382;2022-07-23T09:44:12;28.10;97.00
22568;DHT22;11450;50.818;4.382;2022-07-23T09:46:38;28.00;96.90
22568;DHT22;11450;50.818;4.382;2022-07-23T09:49:22;28.60;94.60
22568;DHT22;11450;50.818;4.382;2022-07-23T09:51:54;29.10;94.70
22568;DHT22;11450;50.818;4.382;2022-07-23T09:54:36;29.50;94.00
22568;DHT22;11450;50.818;4.382;2022-07-23T09:57:12;30.40;92.30
22568;DHT22;11450;50.818;4.382;2022-07-23T09:59:40;30.50;91.70
22568;DHT22;11450;50.818;4.382;2022-07-23T10:02:10;31.00;91.40
22568;DHT22;11450;50.818;4.382;2022-07-23T10:05:02;31.00;91.00
22568;DHT22;11450;50.818;4.382;2022-07-23T10:07:32;31.20;89.90
22568;DHT22;11450;50.818;4.382;2022-07-23T10:10:00;31.60;88.30
22568;DHT22;11450;50.818;4.382;2022-07-23T10:12:26;32.20;86.80
22568;DHT22;11450;50.818;4.382;2022-07-23T10:15:10;32.20;85.20
22568;DHT22;11450;50.818;4.382;2022-07-23T10:17:40;32.20;85.70
22568;DHT22;11450;50.818;4.382;2022-07-23T10:20:10;32.20;85.50
22568;DHT22;11450;50.818;4.382;2022-07-23T10:25:49;32.70;82.80
22568;DHT22;11450;50.818;4.382;2022-07-23T10:28:56;32.50;83.30
22568;DHT22;11450;50.818;4.382;2022-07-23T10:34:17;32.40;80.30
22568;DHT22;11450;50.818;4.382;2022-07-23T10:36:59;32.40;76.10
22568;DHT22;11450;50.818;4.382;2022-07-23T10:39:30;31.30;78.30
22568;DHT22;11450;50.818;4.382;2022-07-23T10:42:16;31.70;78.80
22568;DHT22;11450;50.818;4.382;2022-07-23T10:44:48;31.80;78.30
22568;DHT22;11450;50.818;4.382;2022-07-23T10:47:28;32.20;79.10
22568;DHT22;11450;50.818;4.382;2022-07-23T10:50:36;32.70;76.60
22568;DHT22;11450;50.818;4.382;2022-07-23T10:53:17;32.60;76.10
22568;DHT22;11450;50.818;4.382;2022-07-23T10:58:46;33.30;72.40
22568;DHT22;11450;50.818;4.382;2022-07-23T11:01:37;33.10;71.90
22568;DHT22;11450;50.818;4.382;2022-07-23T11:04:06;32.50;73.90
22568;DHT22;11450;50.818;4.382;2022-07-23T11:07:10;32.30;72.80
22568;DHT22;11450;50.818;4.382;2022-07-23T11:09:47;31.70;72.80
22568;DHT22;11450;50.818;4.382;2022-07-23T11:25:28;30.90;76.50
22568;DHT22;11450;50.818;4.382;2022-07-23T12:25:18;29.70;80.00
22568;DHT22;11450;50.818;4.382;2022-07-23T12:28:08;29.70;79.00
22568;DHT22;11450;50.818;4.382;2022-07-23T12:33:08;29.10;82.80
22568;DHT22;11450;50.818;4.382;2022-07-23T12:35:45;29.10;82.30
22568;DHT22;11450;50.818;4.382;2022-07-23T12:41:54;29.10;80.40
22568;DHT22;11450;50.818;4.382;2022-07-23T12:44:25;28.80;80.90
22568;DHT22;11450;50.818;4.382;2022-07-23T12:49:47;28.10;83.60
22568;DHT22;11450;50.818;4.382;2022-07-23T12:55:30;28.20;82.00
22568;DHT22;11450;50.818;4.382;2022-07-23T12:58:08;28.40;81.90
22568;DHT22;11450;50.818;4.382;2022-07-23T13:01:04;28.20;82.80
22568;DHT22;11450;50.818;4.382;2022-07-23T13:09:34;28.20;83.40
22568;DHT22;11450;50.818;4.382;2022-07-23T13:12:02;28.20;84.20
22568;DHT22;11450;50.818;4.382;2022-07-23T14:01:17;28.80;78.40
22568;DHT22;11450;50.818;4.382;2022-07-23T14:03:54;28.70;81.90
22568;DHT22;11450;50.818;4.382;2022-07-23T14:06:23;28.50;80.80
22568;DHT22;11450;50.818;4.382;2022-07-23T14:09:22;28.40;80.60
22568;DHT22;11450;50.818;4.382;2022-07-23T14:11:52;28.40;80.00
22568;DHT22;11450;50.818;4.382;2022-07-23T14:14:21;28.00;84.30
22568;DHT22;11450;50.818;4.382;2022-07-23T14:45:17;27.20;85.60
22568;DHT22;11450;50.818;4.382;2022-07-23T14:47:51;27.30;85.40
22568;DHT22;11450;50.818;4.382;2022-07-23T14:50:17;27.40;83.60
22568;DHT22;11450;50.818;4.382;2022-07-23T14:52:43;27.50;83.90
22568;DHT22;11450;50.818;4.382;2022-07-23T14:55:09;27.50;84.40
22568;DHT22;11450;50.818;4.382;2022-07-23T14:57:36;27.40;85.30
22568;DHT22;11450;50.818;4.382;2022-07-23T15:00:04;27.20;83.90
22568;DHT22;11450;50.818;4.382;2022-07-23T15:02:31;27.30;85.30
22568;DHT22;11450;50.818;4.382;2022-07-23T15:04:57;27.50;84.60
22568;DHT22;11450;50.818;4.382;2022-07-23T15:07:27;27.60;83.10
22568;DHT22;11450;50.818;4.382;2022-07-23T15:09:54;27.60;86.90
22568;DHT22;11450;50.818;4.382;2022-07-23T15:12:22;27.50;83.30
22568;DHT22;11450;50.818;4.382;2022-07-23T15:14:50;27.50;84.40
22568;DHT22;11450;50.818;4.382;2022-07-23T15:17:16;27.70;82.50
22568;DHT22;11450;50.818;4.382;2022-07-23T15:19:42;27.50;84.70
22568;DHT22;11450;50.818;4.382;2022-07-23T15:22:07;27.60;82.40
22568;DHT22;11450;50.818;4.382;2022-07-23T15:24:33;27.60;82.80
22568;DHT22;11450;50.818;4.382;2022-07-23T15:26:59;27.30;84.90
22568;DHT22;11450;50.818;4.382;2022-07-23T15:29:25;27.30;85.30
22568;DHT22;11450;50.818;4.382;2022-07-23T15:31:52;27.50;82.80
22568;DHT22;11450;50.818;4.382;2022-07-23T15:34:19;27.40;83.80
22568;DHT22;11450;50.818;4.382;2022-07-23T15:36:45;26.80;88.40
22568;DHT22;11450;50.818;4.382;2022-07-23T15:39:11;26.60;87.80
22568;DHT22;11450;50.818;4.382;2022-07-23T15:41:40;26.90;85.90
22568;DHT22;11450;50.818;4.382;2022-07-23T15:44:07;27.20;84.50
22568;DHT22;11450;50.818;4.382;2022-07-23T15:46:35;27.10;87.50
22568;DHT22;11450;50.818;4.382;2022-07-23T15:49:01;27.20;85.40
22568;DHT22;11450;50.818;4.382;2022-07-23T15:51:28;27.20;86.40
22568;DHT22;11450;50.818;4.382;2022-07-23T15:53:54;26.90;88.70
22568;DHT22;11450;50.818;4.382;2022-07-23T15:56:20;26.60;90.00
22568;DHT22;11450;50.818;4.382;2022-07-23T15:58:46;26.60;90.00
22568;DHT22;11450;50.818;4.382;2022-07-23T16:01:12;26.50;90.10
22568;DHT22;11450;50.818;4.382;2022-07-23T16:03:38;26.60;89.10
22568;DHT22;11450;50.818;4.382;2022-07-23T16:06:06;26.70;88.80
22568;DHT22;11450;50.818;4.382;2022-07-23T16:08:49;27.10;86.50
22568;DHT22;11450;50.818;4.382;2022-07-23T16:11:15;27.30;84.80
22568;DHT22;11450;50.818;4.382;2022-07-23T16:13:42;27.40;85.00
22568;DHT22;11450;50.818;4.382;2022-07-23T16:16:09;27.70;85.70
22568;DHT22;11450;50.818;4.382;2022-07-23T16:18:35;27.90;83.90
22568;DHT22;11450;50.818;4.382;2022-07-23T16:21:01;28.00;84.50
22568;DHT22;11450;50.818;4.382;2022-07-23T16:23:35;28.00;84.70
22568;DHT22;11450;50.818;4.382;2022-07-23T16:26:01;28.10;86.20
22568;DHT22;11450;50.818;4.382;2022-07-23T16:28:27;27.80;84.60
22568;DHT22;11450;50.818;4.382;2022-07-23T16:30:53;27.90;83.90
22568;DHT22;11450;50.818;4.382;2022-07-23T16:33:19;27.80;84.30
22568;DHT22;11450;50.818;4.382;2022-07-23T16:35:44;27.60;86.50
22568;DHT22;11450;50.818;4.382;2022-07-23T16:38:33;27.50;85.10
22568;DHT22;11450;50.818;4.382;2022-07-23T16:40:58;27.50;85.00
22568;DHT22;11450;50.818;4.382;2022-07-23T16:43:24;27.60;84.50
22568;DHT22;11450;50.818;4.382;2022-07-23T16:45:53;27.80;84.50
22568;DHT22;11450;50.818;4.382;2022-07-23T16:48:18;27.70;84.40
22568;DHT22;11450;50.818;4.382;2022-07-23T16:50:46;27.80;83.80
22568;DHT22;11450;50.818;4.382;2022-07-23T16:53:11;27.50;84.30
22568;DHT22;11450;50.818;4.382;2022-07-23T16:55:37;27.60;84.20
22568;DHT22;11450;50.818;4.382;2022-07-23T16:58:04;27.60;84.60
22568;DHT22;11450;50.818;4.382;2022-07-23T17:00:30;27.60;87.00
22568;DHT22;11450;50.818;4.382;2022-07-23T17:02:56;27.60;84.40
22568;DHT22;11450;50.818;4.382;2022-07-23T17:05:22;27.60;86.80
22568;DHT22;11450;50.818;4.382;2022-07-23T17:07:49;27.70;83.50
22568;DHT22;11450;50.818;4.382;2022-07-23T17:10:22;27.60;83.60
22568;DHT22;11450;50.818;4.382;2022-07-23T17:12:49;27.70;84.30
22568;DHT22;11450;50.818;4.382;2022-07-23T17:15:17;27.80;83.20
22568;DHT22;11450;50.818;4.382;2022-07-23T17:17:42;27.90;82.90
22568;DHT22;11450;50.818;4.382;2022-07-23T17:20:09;27.90;83.50
22568;DHT22;11450;50.818;4.382;2022-07-23T17:22:35;27.90;83.20
22568;DHT22;11450;50.818;4.382;2022-07-23T17:25:26;27.70;85.70
22568;DHT22;11450;50.818;4.382;2022-07-23T17:28:04;27.50;83.60
22568;DHT22;11450;50.818;4.382;2022-07-23T17:30:30;27.60;83.50
22568;DHT22;11450;50.818;4.382;2022-07-23T17:33:02;27.40;85.60
22568;DHT22;11450;50.818;4.382;2022-07-23T17:35:27;27.40;86.30
22568;DHT22;11450;50.818;4.382;2022-07-23T17:37:54;27.00;90.00
22568;DHT22;11450;50.818;4.382;2022-07-23T17:40:29;26.70;90.20
22568;DHT22;11450;50.818;4.382;2022-07-23T17:42:54;26.50;89.60
22568;DHT22;11450;50.818;4.382;2022-07-23T17:45:20;26.80;87.10
22568;DHT22;11450;50.818;4.382;2022-07-23T17:47:47;27.00;85.80
22568;DHT22;11450;50.818;4.382;2022-07-23T17:50:22;27.10;85.20
22568;DHT22;11450;50.818;4.382;2022-07-23T17:52:53;27.10;86.00
22568;DHT22;11450;50.818;4.382;2022-07-23T17:55:19;27.10;89.40
22568;DHT22;11450;50.818;4.382;2022-07-23T17:57:45;26.80;87.40
22568;DHT22;11450;50.818;4.382;2022-07-23T18:00:14;26.90;86.90
22568;DHT22;11450;50.818;4.382;2022-07-23T18:02:41;26.90;87.10
22568;DHT22;11450;50.818;4.382;2022-07-23T18:05:07;27.00;86.70
22568;DHT22;11450;50.818;4.382;2022-07-23T18:07:33;27.10;85.90
22568;DHT22;11450;50.818;4.382;2022-07-23T18:09:59;27.00;86.50
22568;DHT22;11450;50.818;4.382;2022-07-23T18:12:25;27.10;86.00
22568;DHT22;11450;50.818;4.382;2022-07-23T18:14:51;27.10;88.70
22568;DHT22;11450;50.818;4.382;2022-07-23T18:17:17;27.10;87.40
22568;DHT22;11450;50.818;4.382;2022-07-23T18:19:43;27.10;88.10
22568;DHT22;11450;50.818;4.382;2022-07-23T18:22:10;27.10;87.60
22568;DHT22;11450;50.818;4.382;2022-07-23T18:24:35;27.00;87.40
22568;DHT22;11450;50.818;4.382;2022-07-23T18:27:01;27.00;85.70
22568;DHT22;11450;50.818;4.382;2022-07-23T18:29:27;27.10;85.80
22568;DHT22;11450;50.818;4.382;2022-07-23T18:31:53;27.20;85.20
22568;DHT22;11450;50.818;4.382;2022-07-23T18:34:19;27.10;85.70
22568;DHT22;11450;50.818;4.382;2022-07-23T18:36:45;27.10;86.30
22568;DHT22;11450;50.818;4.382;2022-07-23T18:39:11;27.10;86.30
22568;DHT22;11450;50.818;4.382;2022-07-23T18:41:38;27.10;87.80
22568;DHT22;11450;50.818;4.382;2022-07-23T18:44:04;26.90;87.70
22568;DHT22;11450;50.818;4.382;2022-07-23T18:46:31;26.90;87.50